sensor_id;sensor_type;location;lat;lon;timestamp;pressure;altitude;pressure_sealevel;temperature;humidity
13604;BME280;24578;48.264;11.436;2022-12-07T00:02:52;96080.94;;;1.24;100.00
13604;BME280;24578;48.264;11.436;2022-12-07T00:05:52;96077.50;;;1.25;100.00
13604;BME280;24578;48.264;11.436;2022-12-07T00:08:57;96075.91;;;1.22;100.00
13604;BME280;24578;48.264;11.436;2022-12-07T00:11:58;96078.31;;;1.25;100.00
13604;BME280;24578;48.264;11.436;2022-12-07T00:14:58;96075.84;;;1.24;100.00
13604;BME280;24578;48.264;11.436;2022-12-07T00:17:58;96081.00;;;1.22;100.00
13604;BME280;24578;48.264;11.436;2022-12-07T00:20:59;96066.63;;;1.19;100.00
13604;BME280;24578;48.264;11.436;2022-12-07T00:24:00;96074.28;;;1.19;100.00
13604;BME280;24578;48.264;11.436;2022-12-07T00:27:00;96079.38;;;1.19;100.00
13604;BME280;24578;48.264;11.436;2022-12-07T00:30:00;96069.94;;;1.23;100.00
13604;BME280;24578;48.264;11.436;2022-12-07T00:33:01;96072.41;;;1.25;100.00
13604;BME280;24578;48.264;11.436;2022-12-07T00:36:01;96070.84;;;1.20;100.00
13604;BME280;24578;48.264;11.436;2022-12-07T00:39:02;96071.59;;;1.24;100.00
13604;BME280;24578;48.264;11.436;2022-12-07T00:42:03;96066.53;;;1.23;100.00
13604;BME280;24578;48.264;11.436;2022-12-07T00:45:03;96070.75;;;1.24;100.00
13604;BME280;24578;48.264;11.436;2022-12-07T00:48:04;96067.41;;;1.21;100.00
13604;BME280;24578;48.264;11.436;2022-12-07T00:51:05;96073.38;;;1.22;100.00
13604;BME280;24578;48.264;11.436;2022-12-07T00:54:05;96071.53;;;1.26;100.00
13604;BME280;24578;48.264;11.436;2022-12-07T00:57:05;96063.94;;;1.24;100.00
13604;BME280;24578;48.264;11.436;2022-12-07T01:00:06;96068.13;;;1.25;100.00
13604;BME280;24578;48.264;11.436;2022-12-07T01:03:07;96061.38;;;1.24;100.00
13604;BME280;24578;48.264;11.436;2022-12-07T01:06:08;96062.31;;;1.21;100.00
13604;BME280;24578;48.264;11.436;2022-12-07T01:09:08;96065.56;;;1.25;100.00
13604;BME280;24578;48.264;11.436;2022-12-07T01:12:08;96074.88;;;1.26;100.00
13604;BME280;24578;48.264;11.436;2022-12-07T01:15:09;96070.75;;;1.24;100.00
13604;BME280;24578;48.264;11.436;2022-12-07T01:18:10;96071.63;;;1.23;100.00
13604;BME280;24578;48.264;11.436;2022-12-07T01:21:14;96072.59;;;1.20;100.00
13604;BME280;24578;48.264;11.436;2022-12-07T01:24:15;96074.28;;;1.19;100.00
13604;BME280;24578;48.264;11.436;2022-12-07T01:27:15;96077.72;;;1.18;100.00
13604;BME280;24578;48.264;11.436;2022-12-07T01:30:16;96072.75;;;1.15;100.00
13604;BME280;24578;48.264;11.436;2022-12-07T01:33:16;96072.00;;;1.13;100.00
13604;BME280;24578;48.264;11.436;2022-12-07T01:39:16;96076.31;;;1.11;100.00
13604;BME280;24578;48.264;11.436;2022-12-07T01:42:17;96064.50;;;1.09;100.00
13604;BME280;24578;48.264;11.436;2022-12-07T01:48:18;96060.31;;;1.08;100.00
13604;BME280;24578;48.264;11.436;2022-12-07T01:51:20;96064.66;;;1.04;100.00
13604;BME280;24578;48.264;11.436;2022-12-07T01:54:20;96064.66;;;1.04;100.00
13604;BME280;24578;48.264;11.436;2022-12-07T01:57:21;96056.25;;;1.02;100.00
13604;BME280;24578;48.264;11.436;2022-12-07T02:00:22;96064.66;;;1.04;100.00
13604;BME280;24578;48.264;11.436;2022-12-07T02:03:24;96057.91;;;1.03;100.00
13604;BME280;24578;48.264;11.436;2022-12-07T02:06:27;96061.13;;;1.08;100.00
13604;BME280;24578;48.264;11.436;2022-12-07T02:09:27;96054.34;;;1.07;100.00
13604;BME280;24578;48.264;11.436;2022-12-07T02:12:27;96049.38;;;1.04;100.00
13604;BME280;24578;48.264;11.436;2022-12-07T02:18:55;96048.66;;;1.00;100.00
13604;BME280;24578;48.264;11.436;2022-12-07T02:32:14;96046.81;;;1.04;100.00
13604;BME280;24578;48.264;11.436;2022-12-07T02:35:20;96046.03;;;1.02;100.00
13604;BME280;24578;48.264;11.436;2022-12-07T02:38:26;96042.75;;;1.00;100.00
13604;BME280;24578;48.264;11.436;2022-12-07T02:41:33;96037.66;;;1.00;100.00
13604;BME280;24578;48.264;11.436;2022-12-07T02:44:35;96039.31;;;1.01;100.00
13604;BME280;24578;48.264;11.436;2022-12-07T02:47:36;96036.78;;;0.99;100.00
13604;BME280;24578;48.264;11.436;2022-12-07T02:50:37;96039.34;;;0.99;100.00
13604;BME280;24578;48.264;11.436;2022-12-07T02:56:39;96042.75;;;1.00;100.00
13604;BME280;24578;48.264;11.436;2022-12-07T03:02:52;96034.22;;;1.01;100.00
13604;BME280;24578;48.264;11.436;2022-12-07T03:09:04;96036.91;;;0.96;100.00
13604;BME280;24578;48.264;11.436;2022-12-07T03:12:22;96037.75;;;0.97;100.00
13604;BME280;24578;48.264;11.436;2022-12-07T03:15:32;96038.47;;;1.00;100.00
13604;BME280;24578;48.264;11.436;2022-12-07T03:18:43;96034.31;;;0.98;100.00
13604;BME280;24578;48.264;11.436;2022-12-07T03:22:00;96038.63;;;0.96;100.00
13604;BME280;24578;48.264;11.436;2022-12-07T03:25:06;96033.44;;;0.99;100.00
13604;BME280;24578;48.264;11.436;2022-12-07T03:28:08;96042.75;;;1.00;100.00
13604;BME280;24578;48.264;11.436;2022-12-07T03:34:21;96031.66;;;1.01;100.00
13604;BME280;24578;48.264;11.436;2022-12-07T03:40:35;96039.16;;;1.04;100.00
13604;BME280;24578;48.264;11.436;2022-12-07T03:43:37;96035.81;;;1.03;100.00
13604;BME280;24578;48.264;11.436;2022-12-07T03:47:12;96036.69;;;1.02;100.00
13604;BME280;24578;48.264;11.436;2022-12-07T03:53:29;96033.28;;;1.02;100.00
13604;BME280;24578;48.264;11.436;2022-12-07T03:56:31;96029.03;;;1.02;100.00
13604;BME280;24578;48.264;11.436;2022-12-07T03:59:32;96025.72;;;1.00;100.00
13604;BME280;24578;48.264;11.436;2022-12-07T04:02:33;96024.91;;;1.00;100.00
13604;BME280;24578;48.264;11.436;2022-12-07T04:05:34;96018.78;;;1.04;100.00
13604;BME280;24578;48.264;11.436;2022-12-07T04:08:34;96023.88;;;1.04;100.00
13604;BME280;24578;48.264;11.436;2022-12-07T04:11:34;96023.00;;;1.05;100.00
13604;BME280;24578;48.264;11.436;2022-12-07T04:14:35;96028.88;;;1.07;100.00
13604;BME280;24578;48.264;11.436;2022-12-07T04:17:35;96027.97;;;1.08;100.00
13604;BME280;24578;48.264;11.436;2022-12-07T04:20:36;96030.63;;;1.05;100.00
13604;BME280;24578;48.264;11.436;2022-12-07T04:23:36;96028.03;;;1.06;100.00
13604;BME280;24578;48.264;11.436;2022-12-07T04:26:36;96025.44;;;1.08;100.00
13604;BME280;24578;48.264;11.436;2022-12-07T04:29:36;96020.31;;;1.08;100.00
13604;BME280;24578;48.264;11.436;2022-12-07T04:32:36;96022.09;;;1.06;100.00
13604;BME280;24578;48.264;11.436;2022-12-07T04:35:37;96025.66;;;1.02;100.00
13604;BME280;24578;48.264;11.436;2022-12-07T04:38:37;96014.56;;;1.03;100.00
13604;BME280;24578;48.264;11.436;2022-12-07T04:41:37;96032.41;;;1.03;100.00
13604;BME280;24578;48.264;11.436;2022-12-07T04:44:37;96022.09;;;1.06;100.00
13604;BME280;24578;48.264;11.436;2022-12-07T04:47:37;96015.44;;;1.02;100.00
13604;BME280;24578;48.264;11.436;2022-12-07T04:50:38;96018.78;;;1.04;100.00
13604;BME280;24578;48.264;11.436;2022-12-07T04:53:38;96024.16;;;0.96;100.00
13604;BME280;24578;48.264;11.436;2022-12-07T04:56:38;96014.84;;;0.95;100.00
13604;BME280;24578;48.264;11.436;2022-12-07T04:59:38;96019.06;;;0.96;100.00
13604;BME280;24578;48.264;11.436;2022-12-07T05:02:39;96015.81;;;0.93;100.00
13604;BME280;24578;48.264;11.436;2022-12-07T05:05:40;96023.53;;;0.91;100.00
13604;BME280;24578;48.264;11.436;2022-12-07T05:08:41;96027.06;;;0.87;100.00
13604;BME280;24578;48.264;11.436;2022-12-07T05:11:41;96033.88;;;0.86;100.00
13604;BME280;24578;48.264;11.436;2022-12-07T05:14:43;96021.13;;;0.86;100.00
13604;BME280;24578;48.264;11.436;2022-12-07T05:17:43;96018.56;;;0.86;100.00
13604;BME280;24578;48.264;11.436;2022-12-07T05:20:43;96022.91;;;0.84;100.00
13604;BME280;24578;48.264;11.436;2022-12-07T05:23:44;96014.38;;;0.85;100.00
13604;BME280;24578;48.264;11.436;2022-12-07T05:26:44;96021.25;;;0.83;100.00
13604;BME280;24578;48.264;11.436;2022-12-07T05:29:45;96029.00;;;0.80;100.00
13604;BME280;24578;48.264;11.436;2022-12-07T05:32:45;96018.81;;;0.80;100.00
13604;BME280;24578;48.264;11.436;2022-12-07T05:35:45;96019.63;;;0.81;100.00
13604;BME280;24578;48.264;11.436;2022-12-07T05:38:46;96017.94;;;0.81;100.00
13604;BME280;24578;48.264;11.436;2022-12-07T05:41:46;96019.81;;;0.76;100.00
13604;BME280;24578;48.264;11.436;2022-12-07T05:45:05;96022.47;;;0.73;100.00
13604;BME280;24578;48.264;11.436;2022-12-07T05:48:05;96020.69;;;0.75;100.00
13604;BME280;24578;48.264;11.436;2022-12-07T05:51:05;96019.78;;;0.78;100.00
13604;BME280;24578;48.264;11.436;2022-12-07T05:54:06;96017.25;;;0.76;100.00
13604;BME280;24578;48.264;11.436;2022-12-07T05:57:06;96017.38;;;0.73;100.00
13604;BME280;24578;48.264;11.436;2022-12-07T06:00:06;96022.53;;;0.71;100.00
13604;BME280;24578;48.264;11.436;2022-12-07T06:03:07;96026.03;;;0.69;100.00
13604;BME280;24578;48.264;11.436;2022-12-07T06:06:07;96026.56;;;0.77;100.00
13604;BME280;24578;48.264;11.436;2022-12-07T06:09:07;96014.72;;;0.76;100.00
13604;BME280;24578;48.264;11.436;2022-12-07T06:12:09;96029.22;;;0.74;100.00
13604;BME280;24578;48.264;11.436;2022-12-07T06:15:28;96032.78;;;0.70;100.00
13604;BME280;24578;48.264;11.436;2022-12-07T06:18:28;96026.78;;;0.71;100.00
13604;BME280;24578;48.264;11.436;2022-12-07T06:21:28;96026.03;;;0.69;100.00
13604;BME280;24578;48.264;11.436;2022-12-07T06:24:29;96030.38;;;0.65;100.00
13604;BME280;24578;48.264;11.436;2022-12-07T06:27:29;96034.66;;;0.65;100.00
13604;BME280;24578;48.264;11.436;2022-12-07T06:30:29;96035.53;;;0.64;100.00
13604;BME280;24578;48.264;11.436;2022-12-07T06:33:30;96031.28;;;0.64;100.00
13604;BME280;24578;48.264;11.436;2022-12-07T06:36:30;96035.66;;;0.60;100.00
13604;BME280;24578;48.264;11.436;2022-12-07T06:39:30;96039.03;;;0.61;100.00
13604;BME280;24578;48.264;11.436;2022-12-07T06:42:30;96044.97;;;0.62;100.00
13604;BME280;24578;48.264;11.436;2022-12-07T06:45:31;96042.63;;;0.55;100.00
13604;BME280;24578;48.264;11.436;2022-12-07T06:48:31;96035.75;;;0.57;100.00
13604;BME280;24578;48.264;11.436;2022-12-07T06:51:32;96041.63;;;0.59;100.00
13604;BME280;24578;48.264;11.436;2022-12-07T06:54:32;96040.75;;;0.60;100.00
13604;BME280;24578;48.264;11.436;2022-12-07T06:57:32;96045.16;;;0.55;100.00
13604;BME280;24578;48.264;11.436;2022-12-07T07:00:33;96040.84;;;0.57;100.00
13604;BME280;24578;48.264;11.436;2022-12-07T07:03:35;96047.84;;;0.52;100.00
13604;BME280;24578;48.264;11.436;2022-12-07T07:06:35;96042.69;;;0.54;100.00
13604;BME280;24578;48.264;11.436;2022-12-07T07:09:35;96040.97;;;0.54;100.00
13604;BME280;24578;48.264;11.436;2022-12-07T07:12:35;96042.50;;;0.58;100.00
13604;BME280;24578;48.264;11.436;2022-12-07T07:15:37;96044.88;;;0.63;100.00
13604;BME280;24578;48.264;11.436;2022-12-07T07:18:37;96039.84;;;0.62;100.00
13604;BME280;24578;48.264;11.436;2022-12-07T07:21:37;96045.81;;;0.62;100.00
13604;BME280;24578;48.264;11.436;2022-12-07T07:24:37;96042.31;;;0.65;100.00
13604;BME280;24578;48.264;11.436;2022-12-07T07:27:38;96039.78;;;0.63;100.00
13604;BME280;24578;48.264;11.436;2022-12-07T07:30:38;96038.59;;;0.73;100.00
13604;BME280;24578;48.264;11.436;2022-12-07T07:33:38;96047.06;;;0.74;100.00
13604;BME280;24578;48.264;11.436;2022-12-07T07:36:38;96044.78;;;0.66;100.00
13604;BME280;24578;48.264;11.436;2022-12-07T07:39:38;96053.44;;;0.62;100.00
13604;BME280;24578;48.264;11.436;2022-12-07T07:42:39;96048.13;;;0.68;100.00
13604;BME280;24578;48.264;11.436;2022-12-07T07:45:39;96039.19;;;0.80;100.00
13604;BME280;24578;48.264;11.436;2022-12-07T07:48:40;96048.50;;;0.81;100.00
13604;BME280;24578;48.264;11.436;2022-12-07T07:51:40;96050.72;;;0.90;100.00
13604;BME280;24578;48.264;11.436;2022-12-07T07:54:41;96052.81;;;1.03;100.00
13604;BME280;24578;48.264;11.436;2022-12-07T07:57:41;96056.91;;;1.07;100.00
13604;BME280;24578;48.264;11.436;2022-12-07T08:00:41;96060.72;;;1.19;100.00
13604;BME280;24578;48.264;11.436;2022-12-07T08:03:41;96054.34;;;1.07;100.00
13604;BME280;24578;48.264;11.436;2022-12-07T08:06:41;96052.38;;;1.15;100.00
13604;BME280;24578;48.264;11.436;2022-12-07T08:09:42;96054.75;;;1.20;100.00
13604;BME280;24578;48.264;11.436;2022-12-07T08:12:42;96063.81;;;1.27;100.00
13604;BME280;24578;48.264;11.436;2022-12-07T08:16:06;96062.91;;;1.28;100.00
13604;BME280;24578;48.264;11.436;2022-12-07T08:19:06;96069.56;;;1.32;100.00
13604;BME280;24578;48.264;11.436;2022-12-07T08:22:06;96065.28;;;1.33;100.00
13604;BME280;24578;48.264;11.436;2022-12-07T08:25:07;96060.13;;;1.57;100.00
13604;BME280;24578;48.264;11.436;2022-12-07T08:28:07;96063.78;;;1.72;100.00
13604;BME280;24578;48.264;11.436;2022-12-07T08:31:12;96066.03;;;1.79;100.00
13604;BME280;24578;48.264;11.436;2022-12-07T08:34:13;96072.06;;;1.99;100.00
13604;BME280;24578;48.264;11.436;2022-12-07T08:37:13;96072.22;;;2.17;100.00
13604;BME280;24578;48.264;11.436;2022-12-07T08:40:13;96070.50;;;2.17;100.00
13604;BME280;24578;48.264;11.436;2022-12-07T08:43:18;96063.59;;;2.19;100.00
13604;BME280;24578;48.264;11.436;2022-12-07T08:46:20;96071.19;;;2.21;100.00
13604;BME280;24578;48.264;11.436;2022-12-07T08:49:26;96073.47;;;2.27;100.00
13604;BME280;24578;48.264;11.436;2022-12-07T08:52:27;96066.34;;;2.35;100.00
13604;BME280;24578;48.264;11.436;2022-12-07T08:55:29;96072.41;;;2.33;100.00
13604;BME280;24578;48.264;11.436;2022-12-07T08:58:31;96069.91;;;2.31;100.00
13604;BME280;24578;48.264;11.436;2022-12-07T09:01:31;96071.44;;;2.35;100.00
13604;BME280;24578;48.264;11.436;2022-12-07T09:04:32;96069.25;;;2.47;100.00
13604;BME280;24578;48.264;11.436;2022-12-07T09:07:32;96074.00;;;2.35;100.00
13604;BME280;24578;48.264;11.436;2022-12-07T09:10:33;96074.50;;;2.64;100.00
13604;BME280;24578;48.264;11.436;2022-12-07T09:13:34;96079.03;;;3.16;100.00
13604;BME280;24578;48.264;11.436;2022-12-07T09:16:34;96069.31;;;3.61;100.00
13604;BME280;24578;48.264;11.436;2022-12-07T09:19:34;96068.72;;;3.74;100.00
13604;BME280;24578;48.264;11.436;2022-12-07T09:22:35;96063.31;;;3.97;100.00
13604;BME280;24578;48.264;11.436;2022-12-07T09:25:35;96069.78;;;4.57;100.00
13604;BME280;24578;48.264;11.436;2022-12-07T09:28:35;96064.34;;;4.29;100.00
13604;BME280;24578;48.264;11.436;2022-12-07T09:31:36;96065.59;;;4.21;100.00
13604;BME280;24578;48.264;11.436;2022-12-07T09:34:36;96061.66;;;4.14;100.00
13604;BME280;24578;48.264;11.436;2022-12-07T09:37:36;96062.56;;;4.13;100.00
13604;BME280;24578;48.264;11.436;2022-12-07T09:40:36;96066.63;;;4.17;100.00
13604;BME280;24578;48.264;11.436;2022-12-07T09:43:36;96060.22;;;4.26;100.00
13604;BME280;24578;48.264;11.436;2022-12-07T09:46:40;96059.47;;;4.06;100.00
13604;BME280;24578;48.264;11.436;2022-12-07T09:49:41;96061.13;;;4.07;100.00
13604;BME280;24578;48.264;11.436;2022-12-07T09:52:42;96054.72;;;4.16;100.00
13604;BME280;24578;48.264;11.436;2022-12-07T09:55:44;96057.59;;;4.28;100.00
13604;BME280;24578;48.264;11.436;2022-12-07T09:58:44;96048.44;;;4.39;100.00
13604;BME280;24578;48.264;11.436;2022-12-07T10:01:48;96047.19;;;4.31;100.00
13604;BME280;24578;48.264;11.436;2022-12-07T10:04:49;96043.25;;;4.41;100.00
13604;BME280;24578;48.264;11.436;2022-12-07T10:07:49;96042.28;;;4.44;100.00
13604;BME280;24578;48.264;11.436;2022-12-07T10:10:51;96048.44;;;4.39;100.00
13604;BME280;24578;48.264;11.436;2022-12-07T10:13:51;96041.84;;;4.35;100.00
13604;BME280;24578;48.264;11.436;2022-12-07T10:16:53;96041.25;;;4.30;100.00
13604;BME280;24578;48.264;11.436;2022-12-07T10:20:07;96035.13;;;4.33;100.00
13604;BME280;24578;48.264;11.436;2022-12-07T10:23:13;96038.91;;;4.43;100.00
13604;BME280;24578;48.264;11.436;2022-12-07T10:26:33;96044.44;;;4.51;100.00
13604;BME280;24578;48.264;11.436;2022-12-07T10:29:37;96033.41;;;4.67;100.00
13604;BME280;24578;48.264;11.436;2022-12-07T10:32:38;96031.25;;;4.75;100.00
13604;BME280;24578;48.264;11.436;2022-12-07T10:35:42;96032.91;;;4.76;100.00
13604;BME280;24578;48.264;11.436;2022-12-07T10:38:51;96028.13;;;4.70;100.00
13604;BME280;24578;48.264;11.436;2022-12-07T10:41:58;96034.47;;;4.63;100.00
13604;BME280;24578;48.264;11.436;2022-12-07T10:48:13;96015.47;;;5.47;100.00
13604;BME280;24578;48.264;11.436;2022-12-07T11:00:37;96007.06;;;5.75;97.40
13604;BME280;24578;48.264;11.436;2022-12-07T11:07:05;96002.66;;;6.08;95.27
13604;BME280;24578;48.264;11.436;2022-12-07T11:22:36;95997.03;;;6.01;93.90
13604;BME280;24578;48.264;11.436;2022-12-07T11:38:11;95992.88;;;5.22;97.88
13604;BME280;24578;48.264;11.436;2022-12-07T11:41:13;95978.75;;;5.14;99.52
13604;BME280;24578;48.264;11.436;2022-12-07T11:53:43;95968.44;;;5.77;96.07
13604;BME280;24578;48.264;11.436;2022-12-07T11:56:45;95972.66;;;5.78;95.89
13604;BME280;24578;48.264;11.436;2022-12-07T11:59:52;95965.88;;;6.07;94.56
13604;BME280;24578;48.264;11.436;2022-12-07T12:03:01;95956.16;;;6.27;91.95
13604;BME280;24578;48.264;11.436;2022-12-07T12:06:04;95949.09;;;6.45;90.60
13604;BME280;24578;48.264;11.436;2022-12-07T12:09:06;95956.16;;;6.56;90.05
13604;BME280;24578;48.264;11.436;2022-12-07T12:12:20;95960.19;;;6.60;87.81
13604;BME280;24578;48.264;11.436;2022-12-07T12:18:27;95942.22;;;6.46;89.72
13604;BME280;24578;48.264;11.436;2022-12-07T12:21:32;95939.44;;;6.49;90.08
13604;BME280;24578;48.264;11.436;2022-12-07T12:24:33;95934.03;;;6.53;89.94
13604;BME280;24578;48.264;11.436;2022-12-07T12:27:37;95930.44;;;6.42;89.00
13604;BME280;24578;48.264;11.436;2022-12-07T12:30:39;95931.38;;;6.12;90.66
13604;BME280;24578;48.264;11.436;2022-12-07T12:36:46;95928.50;;;6.02;92.85
13604;BME280;24578;48.264;11.436;2022-12-07T12:43:38;95920.66;;;5.89;93.46
13604;BME280;24578;48.264;11.436;2022-12-07T12:49:33;95927.50;;;6.04;94.99
13604;BME280;24578;48.264;11.436;2022-12-07T12:58:43;95924.84;;;6.20;94.37
13604;BME280;24578;48.264;11.436;2022-12-07T13:01:46;95919.72;;;6.20;94.35
13604;BME280;24578;48.264;11.436;2022-12-07T13:10:47;95913.00;;;6.18;94.27
13604;BME280;24578;48.264;11.436;2022-12-07T13:13:48;95920.19;;;5.82;96.73
13604;BME280;24578;48.264;11.436;2022-12-07T13:16:48;95912.00;;;5.61;97.30
13604;BME280;24578;48.264;11.436;2022-12-07T13:19:53;95916.00;;;5.51;98.17
13604;BME280;24578;48.264;11.436;2022-12-07T13:22:53;95910.91;;;5.65;100.00
13604;BME280;24578;48.264;11.436;2022-12-07T13:32:17;95897.94;;;5.52;98.40
13604;BME280;24578;48.264;11.436;2022-12-07T13:35:41;95902.59;;;5.45;99.46
13604;BME280;24578;48.264;11.436;2022-12-07T13:38:47;95890.34;;;5.51;99.31
13604;BME280;24578;48.264;11.436;2022-12-07T13:41:49;95907.44;;;5.66;97.87
13604;BME280;24578;48.264;11.436;2022-12-07T13:44:50;95902.59;;;5.76;97.00
13604;BME280;24578;48.264;11.436;2022-12-07T13:47:53;95903.28;;;5.63;97.98
13604;BME280;24578;48.264;11.436;2022-12-07T13:50:56;95896.94;;;5.55;99.08
13604;BME280;24578;48.264;11.436;2022-12-07T13:54:00;95895.25;;;5.39;99.15
13604;BME280;24578;48.264;11.436;2022-12-07T13:57:01;95896.34;;;5.35;99.93
13604;BME280;24578;48.264;11.436;2022-12-07T14:00:03;95899.59;;;5.23;99.73
13604;BME280;24578;48.264;11.436;2022-12-07T14:03:19;95897.53;;;5.13;100.00
13604;BME280;24578;48.264;11.436;2022-12-07T14:06:25;95887.13;;;5.16;99.26
13604;BME280;24578;48.264;11.436;2022-12-07T14:09:26;95885.03;;;5.07;100.00
13604;BME280;24578;48.264;11.436;2022-12-07T14:12:28;95895.59;;;4.86;99.99
13604;BME280;24578;48.264;11.436;2022-12-07T14:15:33;95892.63;;;4.62;100.00
13604;BME280;24578;48.264;11.436;2022-12-07T14:18:37;95891.56;;;4.66;100.00
13604;BME280;24578;48.264;11.436;2022-12-07T14:21:38;95888.56;;;4.58;100.00
13604;BME280;24578;48.264;11.436;2022-12-07T14:24:41;95894.97;;;4.51;100.00
13604;BME280;24578;48.264;11.436;2022-12-07T14:27:52;95892.81;;;4.43;100.00
13604;BME280;24578;48.264;11.436;2022-12-07T14:30:55;95892.69;;;4.29;100.00
13604;BME280;24578;48.264;11.436;2022-12-07T14:33:58;95895.72;;;4.19;100.00
13604;BME280;24578;48.264;11.436;2022-12-07T14:36:58;95887.63;;;4.11;100.00
13604;BME280;24578;48.264;11.436;2022-12-07T14:39:59;95895.19;;;3.96;100.00
13604;BME280;24578;48.264;11.436;2022-12-07T14:43:08;95895.34;;;3.93;100.00
13604;BME280;24578;48.264;11.436;2022-12-07T14:46:09;95887.38;;;3.82;100.00
13604;BME280;24578;48.264;11.436;2022-12-07T14:49:09;95887.75;;;3.74;100.00
13604;BME280;24578;48.264;11.436;2022-12-07T14:52:19;95893.25;;;3.66;100.00
13604;BME280;24578;48.264;11.436;2022-12-07T14:55:27;95887.72;;;3.58;100.00
13604;BME280;24578;48.264;11.436;2022-12-07T14:58:28;95890.66;;;3.50;100.00
13604;BME280;24578;48.264;11.436;2022-12-07T15:01:28;95889.38;;;3.42;100.00
13604;BME280;24578;48.264;11.436;2022-12-07T15:04:28;95890.66;;;3.33;100.00
13604;BME280;24578;48.264;11.436;2022-12-07T15:07:28;95882.31;;;3.29;100.00
13604;BME280;24578;48.264;11.436;2022-12-07T15:10:30;95882.59;;;3.23;100.00
13604;BME280;24578;48.264;11.436;2022-12-07T15:13:31;95884.56;;;3.18;100.00
13604;BME280;24578;48.264;11.436;2022-12-07T15:16:50;95886.66;;;3.10;100.00
13604;BME280;24578;48.264;11.436;2022-12-07T15:19:50;95884.53;;;3.00;100.00
13604;BME280;24578;48.264;11.436;2022-12-07T15:22:51;95893.41;;;2.93;100.00
13604;BME280;24578;48.264;11.436;2022-12-07T15:25:51;95881.81;;;2.86;100.00
13604;BME280;24578;48.264;11.436;2022-12-07T15:28:52;95885.41;;;2.82;100.00
13604;BME280;24578;48.264;11.436;2022-12-07T15:31:52;95884.03;;;2.74;100.00
13604;BME280;24578;48.264;11.436;2022-12-07T15:34:52;95884.31;;;2.68;100.00
13604;BME280;24578;48.264;11.436;2022-12-07T15:37:53;95893.03;;;2.64;100.00
13604;BME280;24578;48.264;11.436;2022-12-07T15:40:53;95888.06;;;2.61;100.00
13604;BME280;24578;48.264;11.436;2022-12-07T15:43:53;95887.38;;;2.57;100.00
13604;BME280;24578;48.264;11.436;2022-12-07T15:47:12;95894.16;;;2.58;100.00
13604;BME280;24578;48.264;11.436;2022-12-07T15:50:13;95892.56;;;2.56;100.00
13604;BME280;24578;48.264;11.436;2022-12-07T15:53:14;95892.69;;;2.53;100.00
13604;BME280;24578;48.264;11.436;2022-12-07T15:56:14;95890.28;;;2.50;100.00
13604;BME280;24578;48.264;11.436;2022-12-07T15:59:14;95884.41;;;2.48;100.00
13604;BME280;24578;48.264;11.436;2022-12-07T16:02:15;95872.59;;;2.45;100.00
13604;BME280;24578;48.264;11.436;2022-12-07T16:05:15;95871.91;;;2.41;100.00
13604;BME280;24578;48.264;11.436;2022-12-07T16:08:15;95872.97;;;2.37;100.00
13604;BME280;24578;48.264;11.436;2022-12-07T16:11:15;95876.47;;;2.35;100.00
13604;BME280;24578;48.264;11.436;2022-12-07T16:14:16;95882.53;;;2.32;100.00
13604;BME280;24578;48.264;11.436;2022-12-07T16:17:16;95882.63;;;2.31;100.00
13604;BME280;24578;48.264;11.436;2022-12-07T16:20:16;95878.34;;;2.31;100.00
13604;BME280;24578;48.264;11.436;2022-12-07T16:23:16;95881.00;;;2.28;100.00
13604;BME280;24578;48.264;11.436;2022-12-07T16:26:17;95882.00;;;2.25;100.00
13604;BME280;24578;48.264;11.436;2022-12-07T16:29:19;95872.00;;;2.21;100.00
13604;BME280;24578;48.264;11.436;2022-12-07T16:32:20;95869.56;;;2.18;100.00
13604;BME280;24578;48.264;11.436;2022-12-07T16:35:20;95865.44;;;2.15;100.00
13604;BME280;24578;48.264;11.436;2022-12-07T16:38:20;95870.66;;;2.12;100.00
13604;BME280;24578;48.264;11.436;2022-12-07T16:41:21;95866.66;;;2.06;100.00
13604;BME280;24578;48.264;11.436;2022-12-07T16:44:21;95862.72;;;1.99;100.00
13604;BME280;24578;48.264;11.436;2022-12-07T16:47:21;95866.38;;;1.93;100.00
13604;BME280;24578;48.264;11.436;2022-12-07T16:50:21;95860.84;;;1.83;100.00
13604;BME280;24578;48.264;11.436;2022-12-07T16:53:23;95864.69;;;1.73;100.00
13604;BME280;24578;48.264;11.436;2022-12-07T16:56:23;95864.25;;;1.63;100.00
13604;BME280;24578;48.264;11.436;2022-12-07T16:59:26;95863.81;;;1.54;100.00
13604;BME280;24578;48.264;11.436;2022-12-07T17:02:26;95866.81;;;1.43;100.00
13604;BME280;24578;48.264;11.436;2022-12-07T17:05:26;95864.72;;;1.32;100.00
13604;BME280;24578;48.264;11.436;2022-12-07T17:08:28;95871.91;;;1.22;100.00
13604;BME280;24578;48.264;11.436;2022-12-07T17:11:29;95868.22;;;1.09;100.00
13604;BME280;24578;48.264;11.436;2022-12-07T17:14:32;95865.19;;;0.99;100.00
13604;BME280;24578;48.264;11.436;2022-12-07T17:17:53;95861.34;;;0.88;100.00
13604;BME280;24578;48.264;11.436;2022-12-07T17:20:53;95859.16;;;0.79;100.00
13604;BME280;24578;48.264;11.436;2022-12-07T17:23:53;95857.72;;;0.72;100.00
13604;BME280;24578;48.264;11.436;2022-12-07T17:26:54;95862.31;;;0.64;100.00
13604;BME280;24578;48.264;11.436;2022-12-07T17:29:54;95855.78;;;0.56;100.00
13604;BME280;24578;48.264;11.436;2022-12-07T17:32:54;95850.94;;;0.50;100.00
13604;BME280;24578;48.264;11.436;2022-12-07T17:35:54;95850.22;;;0.47;100.00
13604;BME280;24578;48.264;11.436;2022-12-07T17:38:55;95859.69;;;0.43;100.00
13604;BME280;24578;48.264;11.436;2022-12-07T17:41:55;95854.84;;;0.37;100.00
13604;BME280;24578;48.264;11.436;2022-12-07T17:45:14;95844.81;;;0.32;100.00
13604;BME280;24578;48.264;11.436;2022-12-07T17:48:14;95854.19;;;0.32;100.00
13604;BME280;24578;48.264;11.436;2022-12-07T17:51:14;95855.00;;;0.32;100.00
13604;BME280;24578;48.264;11.436;2022-12-07T17:54:33;95855.91;;;0.31;100.00